sensor_id;sensor_type;location;lat;lon;timestamp;pressure;altitude;pressure_sealevel;temperature;humidity
46007;BME280;31738;50.188;8.524;2022-12-29T00:01:33;98040.91;;;9.73;92.99
46007;BME280;31738;50.188;8.524;2022-12-29T00:03:59;98038.38;;;9.82;93.31
46007;BME280;31738;50.188;8.524;2022-12-29T00:06:25;98038.34;;;9.87;92.65
46007;BME280;31738;50.188;8.524;2022-12-29T00:08:51;98042.84;;;9.91;92.84
46007;BME280;31738;50.188;8.524;2022-12-29T00:11:19;98037.63;;;10.00;92.85
46007;BME280;31738;50.188;8.524;2022-12-29T00:13:45;98042.94;;;10.05;92.37
46007;BME280;31738;50.188;8.524;2022-12-29T00:16:30;98057.91;;;10.06;92.50
46007;BME280;31738;50.188;8.524;2022-12-29T00:18:55;98056.03;;;10.11;92.62
46007;BME280;31738;50.188;8.524;2022-12-29T00:21:22;98053.56;;;10.15;92.40
46007;BME280;31738;50.188;8.524;2022-12-29T00:24:23;98058.41;;;10.13;92.56
46007;BME280;31738;50.188;8.524;2022-12-29T00:29:48;98059.88;;;10.24;92.47
46007;BME280;31738;50.188;8.524;2022-12-29T00:32:33;98055.53;;;10.28;92.26
46007;BME280;31738;50.188;8.524;2022-12-29T00:35:28;98057.59;;;10.36;91.85
46007;BME280;31738;50.188;8.524;2022-12-29T00:37:55;98059.41;;;10.41;91.87
46007;BME280;31738;50.188;8.524;2022-12-29T00:40:41;98064.97;;;10.44;91.69
46007;BME280;31738;50.188;8.524;2022-12-29T00:43:25;98069.75;;;10.47;91.72
46007;BME280;31738;50.188;8.524;2022-12-29T00:46:09;98067.06;;;10.47;91.71
46007;BME280;31738;50.188;8.524;2022-12-29T00:48:34;98073.47;;;10.51;91.38
46007;BME280;31738;50.188;8.524;2022-12-29T00:51:18;98068.09;;;10.51;91.59
46007;BME280;31738;50.188;8.524;2022-12-29T00:53:44;98064.84;;;10.54;91.40
46007;BME280;31738;50.188;8.524;2022-12-29T00:56:09;98061.88;;;10.56;91.59
46007;BME280;31738;50.188;8.524;2022-12-29T00:58:35;98055.63;;;10.60;91.57
46007;BME280;31738;50.188;8.524;2022-12-29T01:01:09;98058.56;;;10.64;91.32
46007;BME280;31738;50.188;8.524;2022-12-29T01:03:37;98053.47;;;10.62;91.58
46007;BME280;31738;50.188;8.524;2022-12-29T01:06:08;98051.56;;;10.63;91.47
46007;BME280;31738;50.188;8.524;2022-12-29T01:08:36;98049.19;;;10.61;91.66
46007;BME280;31738;50.188;8.524;2022-12-29T01:11:10;98063.09;;;10.63;91.41
46007;BME280;31738;50.188;8.524;2022-12-29T01:13:36;98050.91;;;10.52;91.95
46007;BME280;31738;50.188;8.524;2022-12-29T01:16:04;98039.97;;;10.49;92.13
46007;BME280;31738;50.188;8.524;2022-12-29T01:18:31;98044.19;;;10.55;91.99
46007;BME280;31738;50.188;8.524;2022-12-29T01:21:02;98035.88;;;10.56;92.37
46007;BME280;31738;50.188;8.524;2022-12-29T01:23:29;98035.28;;;10.59;92.14
46007;BME280;31738;50.188;8.524;2022-12-29T01:25:55;98033.59;;;10.63;92.55
46007;BME280;31738;50.188;8.524;2022-12-29T01:28:20;98025.28;;;10.65;92.74
46007;BME280;31738;50.188;8.524;2022-12-29T01:30:46;98027.66;;;10.66;92.72
46007;BME280;31738;50.188;8.524;2022-12-29T01:33:12;98023.59;;;10.69;92.31
46007;BME280;31738;50.188;8.524;2022-12-29T01:35:38;98019.03;;;10.69;92.69
46007;BME280;31738;50.188;8.524;2022-12-29T01:38:04;98016.63;;;10.68;93.27
46007;BME280;31738;50.188;8.524;2022-12-29T01:40:30;98009.41;;;10.68;93.30
46007;BME280;31738;50.188;8.524;2022-12-29T01:42:55;98025.50;;;10.68;92.87
46007;BME280;31738;50.188;8.524;2022-12-29T01:45:24;98023.59;;;10.69;93.42
46007;BME280;31738;50.188;8.524;2022-12-29T01:47:53;98023.28;;;10.70;93.35
46007;BME280;31738;50.188;8.524;2022-12-29T01:50:50;98013.66;;;10.69;93.50
46007;BME280;31738;50.188;8.524;2022-12-29T01:53:21;98013.44;;;10.66;93.70
46007;BME280;31738;50.188;8.524;2022-12-29T01:55:57;98003.00;;;10.64;93.91
46007;BME280;31738;50.188;8.524;2022-12-29T01:58:30;98003.00;;;10.64;94.00
46007;BME280;31738;50.188;8.524;2022-12-29T02:00:56;98005.69;;;10.64;94.21
46007;BME280;31738;50.188;8.524;2022-12-29T02:03:25;98007.50;;;10.69;94.05
46007;BME280;31738;50.188;8.524;2022-12-29T02:05:56;97988.25;;;10.67;94.60
46007;BME280;31738;50.188;8.524;2022-12-29T02:08:25;97993.78;;;10.70;94.28
46007;BME280;31738;50.188;8.524;2022-12-29T02:10:52;97996.00;;;10.68;94.28
46007;BME280;31738;50.188;8.524;2022-12-29T02:13:24;97991.41;;;10.69;94.74
46007;BME280;31738;50.188;8.524;2022-12-29T02:27:31;97970.13;;;10.59;95.28
46007;BME280;31738;50.188;8.524;2022-12-29T02:36:32;97957.38;;;10.51;95.85
46007;BME280;31738;50.188;8.524;2022-12-29T02:39:15;97955.97;;;10.53;95.64
46007;BME280;31738;50.188;8.524;2022-12-29T02:45:06;97955.97;;;10.53;95.88
46007;BME280;31738;50.188;8.524;2022-12-29T02:47:57;97952.53;;;10.53;96.08
46007;BME280;31738;50.188;8.524;2022-12-29T02:50:36;97956.50;;;10.55;96.00
46007;BME280;31738;50.188;8.524;2022-12-29T02:53:06;97955.44;;;10.56;95.71
46007;BME280;31738;50.188;8.524;2022-12-29T02:55:33;97951.34;;;10.59;96.10
46007;BME280;31738;50.188;8.524;2022-12-29T02:58:22;97942.72;;;10.62;95.81
46007;BME280;31738;50.188;8.524;2022-12-29T03:01:14;97940.84;;;10.62;95.78
46007;BME280;31738;50.188;8.524;2022-12-29T03:07:01;97937.34;;;10.62;95.70
46007;BME280;31738;50.188;8.524;2022-12-29T03:09:49;97943.53;;;10.62;95.98
46007;BME280;31738;50.188;8.524;2022-12-29T03:21:05;97939.53;;;10.60;96.55
46007;BME280;31738;50.188;8.524;2022-12-29T03:23:34;97941.91;;;10.61;96.54
46007;BME280;31738;50.188;8.524;2022-12-29T03:26:04;97929.03;;;10.63;96.76
46007;BME280;31738;50.188;8.524;2022-12-29T03:28:34;97926.34;;;10.63;96.81
46007;BME280;31738;50.188;8.524;2022-12-29T03:31:03;97931.41;;;10.65;96.84
46007;BME280;31738;50.188;8.524;2022-12-29T03:33:29;97916.72;;;10.62;96.62
46007;BME280;31738;50.188;8.524;2022-12-29T03:36:05;97917.19;;;10.64;96.87
46007;BME280;31738;50.188;8.524;2022-12-29T03:38:35;97915.09;;;10.61;97.32
46007;BME280;31738;50.188;8.524;2022-12-29T03:41:07;97912.13;;;10.63;97.28
46007;BME280;31738;50.188;8.524;2022-12-29T03:43:34;97916.72;;;10.62;97.57
46007;BME280;31738;50.188;8.524;2022-12-29T03:46:00;97917.19;;;10.64;97.20
46007;BME280;31738;50.188;8.524;2022-12-29T03:48:26;97917.19;;;10.64;97.59
46007;BME280;31738;50.188;8.524;2022-12-29T03:50:53;97914.50;;;10.64;97.91
46007;BME280;31738;50.188;8.524;2022-12-29T03:53:19;97906.00;;;10.62;97.66
46007;BME280;31738;50.188;8.524;2022-12-29T03:55:45;97901.41;;;10.63;97.73
46007;BME280;31738;50.188;8.524;2022-12-29T03:58:11;97895.25;;;10.62;97.66
46007;BME280;31738;50.188;8.524;2022-12-29T04:01:02;97922.66;;;10.59;98.01
46007;BME280;31738;50.188;8.524;2022-12-29T04:03:31;97897.44;;;10.60;97.95
46007;BME280;31738;50.188;8.524;2022-12-29T04:05:56;97899.53;;;10.63;98.09
46007;BME280;31738;50.188;8.524;2022-12-29T04:08:22;97888.50;;;10.65;98.29
46007;BME280;31738;50.188;8.524;2022-12-29T04:10:48;97881.25;;;10.65;98.48
46007;BME280;31738;50.188;8.524;2022-12-29T04:13:15;97885.53;;;10.66;98.36
46007;BME280;31738;50.188;8.524;2022-12-29T04:15:43;97880.16;;;10.66;98.36
46007;BME280;31738;50.188;8.524;2022-12-29T04:18:08;97875.31;;;10.68;98.17
46007;BME280;31738;50.188;8.524;2022-12-29T04:23:45;97886.41;;;10.62;98.39
46007;BME280;31738;50.188;8.524;2022-12-29T04:26:12;97896.53;;;10.65;98.46
46007;BME280;31738;50.188;8.524;2022-12-29T04:28:48;97898.13;;;10.66;98.52
46007;BME280;31738;50.188;8.524;2022-12-29T04:31:46;97898.22;;;10.61;98.28
46007;BME280;31738;50.188;8.524;2022-12-29T04:34:12;97896.84;;;10.63;98.12
46007;BME280;31738;50.188;8.524;2022-12-29T04:36:38;97903.78;;;10.64;98.38
46007;BME280;31738;50.188;8.524;2022-12-29T04:39:05;97901.09;;;10.64;98.44
46007;BME280;31738;50.188;8.524;2022-12-29T04:41:32;97900.03;;;10.65;98.10
46007;BME280;31738;50.188;8.524;2022-12-29T04:43:58;97900.03;;;10.65;98.50
46007;BME280;31738;50.188;8.524;2022-12-29T04:46:47;97897.94;;;10.62;98.42
46007;BME280;31738;50.188;8.524;2022-12-29T04:49:27;97904.09;;;10.63;98.46
46007;BME280;31738;50.188;8.524;2022-12-29T04:52:08;97885.59;;;10.61;98.65
46007;BME280;31738;50.188;8.524;2022-12-29T04:54:36;97895.25;;;10.62;98.46
46007;BME280;31738;50.188;8.524;2022-12-29T04:57:08;97898.22;;;10.61;98.54
46007;BME280;31738;50.188;8.524;2022-12-29T04:59:36;97893.66;;;10.61;98.49
46007;BME280;31738;50.188;8.524;2022-12-29T05:02:02;97893.66;;;10.61;98.70
46007;BME280;31738;50.188;8.524;2022-12-29T05:04:28;97898.44;;;10.64;98.33
46007;BME280;31738;50.188;8.524;2022-12-29T05:06:53;97896.84;;;10.63;98.47
46007;BME280;31738;50.188;8.524;2022-12-29T05:09:19;97883.44;;;10.63;98.22
46007;BME280;31738;50.188;8.524;2022-12-29T05:11:45;97891.47;;;10.63;98.56
46007;BME280;31738;50.188;8.524;2022-12-29T05:14:10;97891.47;;;10.63;98.70
46007;BME280;31738;50.188;8.524;2022-12-29T05:16:37;97884.53;;;10.62;98.69
46007;BME280;31738;50.188;8.524;2022-12-29T05:19:02;97894.16;;;10.63;98.46
46007;BME280;31738;50.188;8.524;2022-12-29T05:21:29;97884.53;;;10.62;98.39
46007;BME280;31738;50.188;8.524;2022-12-29T05:23:55;97876.50;;;10.62;98.87
46007;BME280;31738;50.188;8.524;2022-12-29T05:26:23;97889.91;;;10.62;98.47
46007;BME280;31738;50.188;8.524;2022-12-29T05:29:08;97891.25;;;10.60;98.63
46007;BME280;31738;50.188;8.524;2022-12-29T05:31:34;97886.72;;;10.60;98.71
46007;BME280;31738;50.188;8.524;2022-12-29T05:34:01;97897.44;;;10.60;98.58
46007;BME280;31738;50.188;8.524;2022-12-29T05:36:30;97893.66;;;10.61;98.67
46007;BME280;31738;50.188;8.524;2022-12-29T05:38:58;97882.94;;;10.61;98.60
46007;BME280;31738;50.188;8.524;2022-12-29T05:41:24;97893.94;;;10.60;98.44
46007;BME280;31738;50.188;8.524;2022-12-29T05:44:04;97893.47;;;10.58;98.78
46007;BME280;31738;50.188;8.524;2022-12-29T05:46:42;97892.66;;;10.57;98.84
46007;BME280;31738;50.188;8.524;2022-12-29T05:49:18;97887.28;;;10.57;98.94
46007;BME280;31738;50.188;8.524;2022-12-29T05:51:54;97887.59;;;10.56;98.87
46007;BME280;31738;50.188;8.524;2022-12-29T05:54:21;97881.94;;;10.57;98.80
46007;BME280;31738;50.188;8.524;2022-12-29T05:56:46;97893.75;;;10.56;98.72
46007;BME280;31738;50.188;8.524;2022-12-29T05:59:12;97892.66;;;10.57;99.05
46007;BME280;31738;50.188;8.524;2022-12-29T06:01:38;97889.97;;;10.57;98.99
46007;BME280;31738;50.188;8.524;2022-12-29T06:04:03;97889.97;;;10.57;98.86
46007;BME280;31738;50.188;8.524;2022-12-29T06:06:30;97879.75;;;10.59;98.76
46007;BME280;31738;50.188;8.524;2022-12-29T06:08:56;97888.88;;;10.58;98.92
46007;BME280;31738;50.188;8.524;2022-12-29T06:11:23;97894.25;;;10.58;98.97
46007;BME280;31738;50.188;8.524;2022-12-29T06:13:53;97893.47;;;10.58;99.11
46007;BME280;31738;50.188;8.524;2022-12-29T06:16:18;97890.78;;;10.58;99.21
46007;BME280;31738;50.188;8.524;2022-12-29T06:18:45;97888.09;;;10.58;98.95
46007;BME280;31738;50.188;8.524;2022-12-29T06:21:10;97885.13;;;10.59;99.32
46007;BME280;31738;50.188;8.524;2022-12-29T06:23:36;97884.31;;;10.59;99.45
46007;BME280;31738;50.188;8.524;2022-12-29T06:26:03;97882.75;;;10.58;99.21
46007;BME280;31738;50.188;8.524;2022-12-29T06:28:29;97878.97;;;10.59;99.40
46007;BME280;31738;50.188;8.524;2022-12-29T06:30:54;97880.34;;;10.56;99.08
46007;BME280;31738;50.188;8.524;2022-12-29T06:33:20;97880.34;;;10.56;99.07
46007;BME280;31738;50.188;8.524;2022-12-29T06:35:46;97876.56;;;10.57;99.18
46007;BME280;31738;50.188;8.524;2022-12-29T06:38:11;97872.78;;;10.58;99.38
46007;BME280;31738;50.188;8.524;2022-12-29T06:40:37;97875.47;;;10.58;99.44
46007;BME280;31738;50.188;8.524;2022-12-29T06:43:29;97864.81;;;10.53;99.61
46007;BME280;31738;50.188;8.524;2022-12-29T06:46:18;97879.31;;;10.52;99.42
46007;BME280;31738;50.188;8.524;2022-12-29T06:48:44;97871.28;;;10.52;99.59
46007;BME280;31738;50.188;8.524;2022-12-29T06:51:09;97871.00;;;10.54;99.82
46007;BME280;31738;50.188;8.524;2022-12-29T06:53:34;97871.50;;;10.56;99.85
46007;BME280;31738;50.188;8.524;2022-12-29T06:56:00;97864.25;;;10.56;99.63
46007;BME280;31738;50.188;8.524;2022-12-29T06:58:25;97866.66;;;10.58;99.68
46007;BME280;31738;50.188;8.524;2022-12-29T07:00:51;97856.69;;;10.58;99.70
46007;BME280;31738;50.188;8.524;2022-12-29T07:03:16;97865.53;;;10.59;99.63
46007;BME280;31738;50.188;8.524;2022-12-29T07:05:42;97847.28;;;10.61;100.00
46007;BME280;31738;50.188;8.524;2022-12-29T07:08:07;97840.03;;;10.61;100.00
46007;BME280;31738;50.188;8.524;2022-12-29T07:10:33;97836.25;;;10.62;99.70
46007;BME280;31738;50.188;8.524;2022-12-29T07:12:58;97836.25;;;10.62;99.80
46007;BME280;31738;50.188;8.524;2022-12-29T07:15:24;97843.22;;;10.63;99.67
46007;BME280;31738;50.188;8.524;2022-12-29T07:17:49;97841.63;;;10.62;99.89
46007;BME280;31738;50.188;8.524;2022-12-29T07:20:15;97843.22;;;10.63;99.80
46007;BME280;31738;50.188;8.524;2022-12-29T07:22:41;97842.41;;;10.63;99.55
46007;BME280;31738;50.188;8.524;2022-12-29T07:25:07;97834.88;;;10.65;99.72
46007;BME280;31738;50.188;8.524;2022-12-29T07:27:32;97841.81;;;10.66;99.80
46007;BME280;31738;50.188;8.524;2022-12-29T07:29:58;97839.63;;;10.68;99.66
46007;BME280;31738;50.188;8.524;2022-12-29T07:32:23;97840.44;;;10.68;99.83
46007;BME280;31738;50.188;8.524;2022-12-29T07:34:49;97841.22;;;10.69;99.52
46007;BME280;31738;50.188;8.524;2022-12-29T07:37:15;97845.00;;;10.68;99.64
46007;BME280;31738;50.188;8.524;2022-12-29T07:39:40;97845.81;;;10.68;99.83
46007;BME280;31738;50.188;8.524;2022-12-29T07:42:06;97842.63;;;10.66;99.81
46007;BME280;31738;50.188;8.524;2022-12-29T07:44:40;97854.16;;;10.67;99.53
46007;BME280;31738;50.188;8.524;2022-12-29T07:47:17;97857.13;;;10.65;99.45
46007;BME280;31738;50.188;8.524;2022-12-29T07:49:43;97857.91;;;10.66;99.49
46007;BME280;31738;50.188;8.524;2022-12-29T07:52:08;97858.72;;;10.66;99.73
46007;BME280;31738;50.188;8.524;2022-12-29T07:54:34;97859.22;;;10.68;99.48
46007;BME280;31738;50.188;8.524;2022-12-29T07:56:59;97856.25;;;10.70;99.11
46007;BME280;31738;50.188;8.524;2022-12-29T07:59:26;97869.34;;;10.71;99.04
46007;BME280;31738;50.188;8.524;2022-12-29T08:01:51;97873.03;;;10.75;98.89
46007;BME280;31738;50.188;8.524;2022-12-29T08:04:17;97870.84;;;10.77;99.02
46007;BME280;31738;50.188;8.524;2022-12-29T08:06:42;97884.75;;;10.79;98.96
46007;BME280;31738;50.188;8.524;2022-12-29T08:09:08;97885.84;;;10.78;98.32
46007;BME280;31738;50.188;8.524;2022-12-29T08:11:34;97889.56;;;10.82;98.47
46007;BME280;31738;50.188;8.524;2022-12-29T08:13:59;97894.91;;;10.82;98.20
46007;BME280;31738;50.188;8.524;2022-12-29T08:16:25;97914.16;;;10.84;98.14
46007;BME280;31738;50.188;8.524;2022-12-29T08:18:50;97918.94;;;10.87;97.88
46007;BME280;31738;50.188;8.524;2022-12-29T08:21:16;97923.25;;;10.88;97.83
46007;BME280;31738;50.188;8.524;2022-12-29T08:23:41;97932.88;;;10.89;97.45
46007;BME280;31738;50.188;8.524;2022-12-29T08:26:07;97925.63;;;10.90;97.25
46007;BME280;31738;50.188;8.524;2022-12-29T08:28:35;97929.09;;;10.90;97.04
46007;BME280;31738;50.188;8.524;2022-12-29T08:31:02;97933.88;;;10.93;97.00
46007;BME280;31738;50.188;8.524;2022-12-29T08:33:28;97943.53;;;10.94;97.04
46007;BME280;31738;50.188;8.524;2022-12-29T08:36:01;97947.78;;;10.95;96.61
46007;BME280;31738;50.188;8.524;2022-12-29T08:38:28;97946.97;;;10.95;96.86
46007;BME280;31738;50.188;8.524;2022-12-29T08:40:54;97937.88;;;10.96;96.77
46007;BME280;31738;50.188;8.524;2022-12-29T08:43:20;97942.94;;;10.97;96.50
46007;BME280;31738;50.188;8.524;2022-12-29T08:45:46;97945.03;;;11.00;96.59
46007;BME280;31738;50.188;8.524;2022-12-29T08:48:11;97941.75;;;11.03;96.57
46007;BME280;31738;50.188;8.524;2022-12-29T08:50:36;97947.59;;;11.05;96.51
46007;BME280;31738;50.188;8.524;2022-12-29T08:53:02;97949.22;;;11.06;96.68
46007;BME280;31738;50.188;8.524;2022-12-29T08:55:27;97955.09;;;11.08;96.58
46007;BME280;31738;50.188;8.524;2022-12-29T08:57:53;97963.63;;;11.10;96.31
46007;BME280;31738;50.188;8.524;2022-12-29T09:00:20;97958.75;;;11.12;96.66
46007;BME280;31738;50.188;8.524;2022-12-29T09:02:46;97961.16;;;11.14;96.52
46007;BME280;31738;50.188;8.524;2022-12-29T09:05:12;97963.53;;;11.15;96.73
46007;BME280;31738;50.188;8.524;2022-12-29T09:07:37;97949.81;;;11.17;96.68
46007;BME280;31738;50.188;8.524;2022-12-29T09:10:03;97964.53;;;11.19;96.63
46007;BME280;31738;50.188;8.524;2022-12-29T09:12:29;97970.41;;;11.21;96.42
46007;BME280;31738;50.188;8.524;2022-12-29T09:14:55;97970.91;;;11.23;96.35
46007;BME280;31738;50.188;8.524;2022-12-29T09:17:20;97977.88;;;11.24;96.35
46007;BME280;31738;50.188;8.524;2022-12-29T09:20:04;97976.28;;;11.23;96.48
46007;BME280;31738;50.188;8.524;2022-12-29T09:22:30;97980.84;;;11.23;96.74
46007;BME280;31738;50.188;8.524;2022-12-29T09:24:55;97984.81;;;11.25;96.44
46007;BME280;31738;50.188;8.524;2022-12-29T09:27:21;97975.69;;;11.26;96.69
46007;BME280;31738;50.188;8.524;2022-12-29T09:29:46;97976.16;;;11.28;96.60
46007;BME280;31738;50.188;8.524;2022-12-29T09:32:12;97985.53;;;11.31;96.59
46007;BME280;31738;50.188;8.524;2022-12-29T09:34:37;97985.25;;;11.32;96.48
46007;BME280;31738;50.188;8.524;2022-12-29T09:37:03;97991.09;;;11.34;96.29
46007;BME280;31738;50.188;8.524;2022-12-29T09:39:28;97981.97;;;11.35;96.16
46007;BME280;31738;50.188;8.524;2022-12-29T09:45:12;97999.16;;;11.34;96.65
46007;BME280;31738;50.188;8.524;2022-12-29T09:47:43;97991.59;;;11.36;96.67
46007;BME280;31738;50.188;8.524;2022-12-29T09:50:29;97983.47;;;11.41;96.52
46007;BME280;31738;50.188;8.524;2022-12-29T09:53:15;97986.06;;;11.46;96.36
46007;BME280;31738;50.188;8.524;2022-12-29T09:55:49;97990.03;;;11.49;96.25
46007;BME280;31738;50.188;8.524;2022-12-29T09:58:28;97990.25;;;11.52;95.66
46007;BME280;31738;50.188;8.524;2022-12-29T10:01:03;97988.03;;;11.54;96.05
46007;BME280;31738;50.188;8.524;2022-12-29T10:03:49;97991.22;;;11.56;95.95
46007;BME280;31738;50.188;8.524;2022-12-29T10:06:22;97994.13;;;11.60;96.29
46007;BME280;31738;50.188;8.524;2022-12-29T10:20:05;97999.97;;;11.48;96.45
46007;BME280;31738;50.188;8.524;2022-12-29T10:25:23;97993.59;;;11.44;96.53
46007;BME280;31738;50.188;8.524;2022-12-29T10:27:51;97992.03;;;11.43;96.42
46007;BME280;31738;50.188;8.524;2022-12-29T10:30:18;97989.81;;;11.45;96.36
46007;BME280;31738;50.188;8.524;2022-12-29T10:32:52;98003.16;;;11.50;96.23
46007;BME280;31738;50.188;8.524;2022-12-29T10:35:23;98000.19;;;11.52;96.17
46007;BME280;31738;50.188;8.524;2022-12-29T10:37:58;98003.38;;;11.54;96.23
46007;BME280;31738;50.188;8.524;2022-12-29T10:40:36;98003.06;;;11.55;96.23
46007;BME280;31738;50.188;8.524;2022-12-29T10:43:18;98010.63;;;11.53;96.03
46007;BME280;31738;50.188;8.524;2022-12-29T10:45:47;98005.03;;;11.50;95.74
46007;BME280;31738;50.188;8.524;2022-12-29T10:48:21;98012.81;;;11.51;95.84
46007;BME280;31738;50.188;8.524;2022-12-29T10:50:48;98016.00;;;11.53;95.87
46007;BME280;31738;50.188;8.524;2022-12-29T10:53:25;98005.75;;;11.55;95.45
46007;BME280;31738;50.188;8.524;2022-12-29T10:55:53;98009.53;;;11.54;95.29
46007;BME280;31738;50.188;8.524;2022-12-29T10:58:19;98009.72;;;11.58;95.47
46007;BME280;31738;50.188;8.524;2022-12-29T11:00:51;98009.13;;;11.61;94.82
46007;BME280;31738;50.188;8.524;2022-12-29T11:03:45;98007.78;;;11.63;95.00
46007;BME280;31738;50.188;8.524;2022-12-29T11:06:22;98009.38;;;11.64;94.81
46007;BME280;31738;50.188;8.524;2022-12-29T11:11:33;98011.47;;;11.67;94.02
46007;BME280;31738;50.188;8.524;2022-12-29T11:16:34;98030.97;;;11.73;93.96
46007;BME280;31738;50.188;8.524;2022-12-29T11:19:00;98022.50;;;11.79;93.85
46007;BME280;31738;50.188;8.524;2022-12-29T11:21:32;98027.78;;;11.84;93.36
46007;BME280;31738;50.188;8.524;2022-12-29T11:24:03;98049.78;;;11.86;92.50
46007;BME280;31738;50.188;8.524;2022-12-29T11:26:30;98071.28;;;11.86;92.02
46007;BME280;31738;50.188;8.524;2022-12-29T11:29:16;98068.59;;;11.86;91.60
46007;BME280;31738;50.188;8.524;2022-12-29T11:31:47;98075.88;;;11.86;91.52
46007;BME280;31738;50.188;8.524;2022-12-29T11:34:39;98070.50;;;11.86;90.76
46007;BME280;31738;50.188;8.524;2022-12-29T11:37:29;98071.38;;;11.81;90.71
46007;BME280;31738;50.188;8.524;2022-12-29T11:39:59;98079.22;;;11.78;90.43
46007;BME280;31738;50.188;8.524;2022-12-29T11:42:37;98092.28;;;11.84;90.08
46007;BME280;31738;50.188;8.524;2022-12-29T11:45:05;98092.59;;;11.83;90.28
46007;BME280;31738;50.188;8.524;2022-12-29T11:47:32;98099.25;;;11.85;89.83
46007;BME280;31738;50.188;8.524;2022-12-29T11:50:02;98098.94;;;11.87;89.68
46007;BME280;31738;50.188;8.524;2022-12-29T11:52:31;98102.94;;;11.89;89.43
46007;BME280;31738;50.188;8.524;2022-12-29T11:55:02;98098.56;;;11.93;89.31
46007;BME280;31738;50.188;8.524;2022-12-29T11:57:28;98090.41;;;11.98;89.24
46007;BME280;31738;50.188;8.524;2022-12-29T11:59:55;98093.28;;;12.02;88.42
46007;BME280;31738;50.188;8.524;2022-12-29T12:05:39;98074.97;;;12.04;88.40
46007;BME280;31738;50.188;8.524;2022-12-29T12:08:11;98094.00;;;12.07;88.14
46007;BME280;31738;50.188;8.524;2022-12-29T12:10:48;98100.34;;;12.12;87.93
46007;BME280;31738;50.188;8.524;2022-12-29T12:14:01;98105.06;;;12.20;87.32
46007;BME280;31738;50.188;8.524;2022-12-29T12:16:54;98104.03;;;12.16;86.97
46007;BME280;31738;50.188;8.524;2022-12-29T12:22:13;98107.94;;;12.23;86.01
46007;BME280;31738;50.188;8.524;2022-12-29T12:24:52;98123.28;;;12.23;85.79
46007;BME280;31738;50.188;8.524;2022-12-29T12:27:30;98116.31;;;12.22;85.40
46007;BME280;31738;50.188;8.524;2022-12-29T12:30:04;98135.44;;;12.20;84.72
46007;BME280;31738;50.188;8.524;2022-12-29T12:32:41;98120.38;;;12.19;84.76
46007;BME280;31738;50.188;8.524;2022-12-29T12:35:14;98127.66;;;12.19;84.76
46007;BME280;31738;50.188;8.524;2022-12-29T12:43:13;98140.22;;;12.23;85.05
46007;BME280;31738;50.188;8.524;2022-12-29T12:46:22;98115.00;;;12.33;85.18
46007;BME280;31738;50.188;8.524;2022-12-29T12:51:55;98120.09;;;12.48;84.60
46007;BME280;31738;50.188;8.524;2022-12-29T12:57:28;98122.66;;;12.53;84.01
46007;BME280;31738;50.188;8.524;2022-12-29T13:00:07;98131.81;;;12.52;84.36
46007;BME280;31738;50.188;8.524;2022-12-29T13:11:23;98132.13;;;12.37;84.17
46007;BME280;31738;50.188;8.524;2022-12-29T13:13:59;98117.69;;;12.33;83.90
46007;BME280;31738;50.188;8.524;2022-12-29T13:16:48;98139.19;;;12.33;83.75
46007;BME280;31738;50.188;8.524;2022-12-29T13:22:25;98135.00;;;12.27;84.00
46007;BME280;31738;50.188;8.524;2022-12-29T13:30:23;98135.44;;;12.20;83.25
46007;BME280;31738;50.188;8.524;2022-12-29T13:33:35;98121.09;;;12.25;83.11
46007;BME280;31738;50.188;8.524;2022-12-29T13:36:25;98119.97;;;12.26;83.88
46007;BME280;31738;50.188;8.524;2022-12-29T13:38:58;98142.00;;;12.28;83.97
46007;BME280;31738;50.188;8.524;2022-12-29T13:41:33;98131.41;;;12.31;84.05
46007;BME280;31738;50.188;8.524;2022-12-29T13:44:03;98145.16;;;12.30;84.33
46007;BME280;31738;50.188;8.524;2022-12-29T13:46:34;98148.47;;;12.27;84.38
46007;BME280;31738;50.188;8.524;2022-12-29T13:49:22;98142.91;;;12.23;84.46
46007;BME280;31738;50.188;8.524;2022-12-29T13:51:52;98144.78;;;12.23;84.56
46007;BME280;31738;50.188;8.524;2022-12-29T13:54:43;98142.09;;;12.23;84.56
46007;BME280;31738;50.188;8.524;2022-12-29T13:59:58;98137.22;;;12.25;84.88
46007;BME280;31738;50.188;8.524;2022-12-29T14:05:05;98114.09;;;12.24;85.35
46007;BME280;31738;50.188;8.524;2022-12-29T14:08:00;98128.13;;;12.21;84.90
46007;BME280;31738;50.188;8.524;2022-12-29T14:10:33;98133.03;;;12.19;84.96
46007;BME280;31738;50.188;8.524;2022-12-29T14:15:28;98140.59;;;12.17;84.94
46007;BME280;31738;50.188;8.524;2022-12-29T14:18:10;98127.97;;;12.17;85.04
46007;BME280;31738;50.188;8.524;2022-12-29T14:20:38;98136.88;;;12.13;84.75
46007;BME280;31738;50.188;8.524;2022-12-29T14:25:56;98152.53;;;12.11;83.96
46007;BME280;31738;50.188;8.524;2022-12-29T14:28:33;98155.31;;;12.05;84.13
46007;BME280;31738;50.188;8.524;2022-12-29T14:31:03;98161.28;;;12.02;83.69
46007;BME280;31738;50.188;8.524;2022-12-29T14:33:33;98165.06;;;12.01;83.76
46007;BME280;31738;50.188;8.524;2022-12-29T14:36:20;98180.69;;;11.99;83.05
46007;BME280;31738;50.188;8.524;2022-12-29T14:38:47;98177.50;;;11.97;83.10
46007;BME280;31738;50.188;8.524;2022-12-29T14:41:22;98181.00;;;11.98;82.50
46007;BME280;31738;50.188;8.524;2022-12-29T14:44:21;98193.91;;;11.96;82.52
46007;BME280;31738;50.188;8.524;2022-12-29T14:49:20;98197.28;;;11.88;82.39
46007;BME280;31738;50.188;8.524;2022-12-29T14:51:47;98198.88;;;11.89;82.21
46007;BME280;31738;50.188;8.524;2022-12-29T14:57:08;98197.09;;;11.84;81.80
46007;BME280;31738;50.188;8.524;2022-12-29T14:59:36;98206.72;;;11.85;81.96
46007;BME280;31738;50.188;8.524;2022-12-29T15:02:04;98201.66;;;11.84;81.61
46007;BME280;31738;50.188;8.524;2022-12-29T15:04:38;98200.84;;;11.83;82.07
46007;BME280;31738;50.188;8.524;2022-12-29T15:07:07;98195.75;;;11.82;81.59
46007;BME280;31738;50.188;8.524;2022-12-29T15:09:36;98203.63;;;11.78;81.82
46007;BME280;31738;50.188;8.524;2022-12-29T15:14:56;98203.19;;;11.71;82.06
46007;BME280;31738;50.188;8.524;2022-12-29T15:17:28;98212.44;;;11.65;82.18